sensor_id;sensor_type;location;lat;lon;timestamp;temperature;humidity
46898;DHT22;32646;50.958;6.258;2023-04-08T00:01:53;7.70;99.90
46898;DHT22;32646;50.958;6.258;2023-04-08T00:04:19;7.80;99.90
46898;DHT22;32646;50.958;6.258;2023-04-08T00:06:46;7.80;99.90
46898;DHT22;32646;50.958;6.258;2023-04-08T00:09:13;7.80;99.90
46898;DHT22;32646;50.958;6.258;2023-04-08T00:11:39;7.80;99.90
46898;DHT22;32646;50.958;6.258;2023-04-08T00:14:06;7.70;99.90
46898;DHT22;32646;50.958;6.258;2023-04-08T00:16:32;7.70;99.90
46898;DHT22;32646;50.958;6.258;2023-04-08T00:18:59;7.70;99.90
46898;DHT22;32646;50.958;6.258;2023-04-08T00:21:25;7.70;99.90
46898;DHT22;32646;50.958;6.258;2023-04-08T00:23:52;7.70;99.90
46898;DHT22;32646;50.958;6.258;2023-04-08T00:26:19;7.80;99.90
46898;DHT22;32646;50.958;6.258;2023-04-08T00:28:45;7.70;99.90
46898;DHT22;32646;50.958;6.258;2023-04-08T00:31:12;7.70;99.90
46898;DHT22;32646;50.958;6.258;2023-04-08T00:33:38;7.70;99.90
46898;DHT22;32646;50.958;6.258;2023-04-08T00:36:05;7.70;99.90
46898;DHT22;32646;50.958;6.258;2023-04-08T00:38:31;7.70;99.90
46898;DHT22;32646;50.958;6.258;2023-04-08T00:40:58;7.70;99.90
46898;DHT22;32646;50.958;6.258;2023-04-08T00:43:24;7.70;99.90
46898;DHT22;32646;50.958;6.258;2023-04-08T00:45:51;7.60;99.90
46898;DHT22;32646;50.958;6.258;2023-04-08T00:48:17;7.60;99.90
46898;DHT22;32646;50.958;6.258;2023-04-08T00:50:44;7.60;99.90
46898;DHT22;32646;50.958;6.258;2023-04-08T00:53:11;7.60;99.90
46898;DHT22;32646;50.958;6.258;2023-04-08T00:55:38;7.60;99.90
46898;DHT22;32646;50.958;6.258;2023-04-08T00:58:04;7.60;99.90
46898;DHT22;32646;50.958;6.258;2023-04-08T01:00:31;7.60;99.90
46898;DHT22;32646;50.958;6.258;2023-04-08T01:03:13;7.60;99.90
46898;DHT22;32646;50.958;6.258;2023-04-08T01:08:31;7.60;99.90
46898;DHT22;32646;50.958;6.258;2023-04-08T01:11:00;7.60;99.90
46898;DHT22;32646;50.958;6.258;2023-04-08T01:13:29;7.60;99.90
46898;DHT22;32646;50.958;6.258;2023-04-08T01:15:56;7.60;99.90
46898;DHT22;32646;50.958;6.258;2023-04-08T01:18:23;7.60;99.90
46898;DHT22;32646;50.958;6.258;2023-04-08T01:20:50;7.50;99.90
46898;DHT22;32646;50.958;6.258;2023-04-08T01:25:56;7.60;99.90
46898;DHT22;32646;50.958;6.258;2023-04-08T01:28:27;7.50;99.90
46898;DHT22;32646;50.958;6.258;2023-04-08T01:30:56;7.60;99.90
46898;DHT22;32646;50.958;6.258;2023-04-08T01:33:23;7.50;99.90
46898;DHT22;32646;50.958;6.258;2023-04-08T01:35:51;7.50;99.90
46898;DHT22;32646;50.958;6.258;2023-04-08T01:38:20;7.50;99.90
46898;DHT22;32646;50.958;6.258;2023-04-08T01:40:48;7.50;99.90
46898;DHT22;32646;50.958;6.258;2023-04-08T01:43:17;7.60;99.90
46898;DHT22;32646;50.958;6.258;2023-04-08T01:45:45;7.60;99.90
46898;DHT22;32646;50.958;6.258;2023-04-08T01:48:15;7.60;99.90
46898;DHT22;32646;50.958;6.258;2023-04-08T01:50:42;7.70;99.90
46898;DHT22;32646;50.958;6.258;2023-04-08T01:53:10;7.60;99.90
46898;DHT22;32646;50.958;6.258;2023-04-08T01:55:41;7.60;99.90
46898;DHT22;32646;50.958;6.258;2023-04-08T01:58:11;7.70;99.90
46898;DHT22;32646;50.958;6.258;2023-04-08T02:00:40;7.60;99.90
46898;DHT22;32646;50.958;6.258;2023-04-08T02:03:07;7.60;99.90
46898;DHT22;32646;50.958;6.258;2023-04-08T02:05:38;7.60;99.90
46898;DHT22;32646;50.958;6.258;2023-04-08T02:08:05;7.60;99.90
46898;DHT22;32646;50.958;6.258;2023-04-08T02:10:32;7.60;99.90
46898;DHT22;32646;50.958;6.258;2023-04-08T02:12:58;7.60;99.90
46898;DHT22;32646;50.958;6.258;2023-04-08T02:15:26;7.60;99.90
46898;DHT22;32646;50.958;6.258;2023-04-08T02:17:55;7.70;99.90
46898;DHT22;32646;50.958;6.258;2023-04-08T02:20:26;7.70;99.90
46898;DHT22;32646;50.958;6.258;2023-04-08T02:23:02;7.60;99.90
46898;DHT22;32646;50.958;6.258;2023-04-08T02:25:31;7.60;99.90
46898;DHT22;32646;50.958;6.258;2023-04-08T02:28:03;7.60;99.90
46898;DHT22;32646;50.958;6.258;2023-04-08T02:30:31;7.60;99.90
46898;DHT22;32646;50.958;6.258;2023-04-08T02:33:00;7.50;99.90
46898;DHT22;32646;50.958;6.258;2023-04-08T02:35:30;7.60;99.90
46898;DHT22;32646;50.958;6.258;2023-04-08T02:37:57;7.60;99.90
46898;DHT22;32646;50.958;6.258;2023-04-08T02:40:29;7.50;99.90
46898;DHT22;32646;50.958;6.258;2023-04-08T02:42:56;7.40;99.90
46898;DHT22;32646;50.958;6.258;2023-04-08T02:45:27;7.40;99.90
46898;DHT22;32646;50.958;6.258;2023-04-08T02:47:55;7.50;99.90
46898;DHT22;32646;50.958;6.258;2023-04-08T02:50:21;7.40;99.90
46898;DHT22;32646;50.958;6.258;2023-04-08T02:52:48;7.40;99.90
46898;DHT22;32646;50.958;6.258;2023-04-08T02:55:14;7.50;99.90
46898;DHT22;32646;50.958;6.258;2023-04-08T02:57:41;7.50;99.90
46898;DHT22;32646;50.958;6.258;2023-04-08T03:00:08;7.40;99.90
46898;DHT22;32646;50.958;6.258;2023-04-08T03:02:35;7.40;99.90
46898;DHT22;32646;50.958;6.258;2023-04-08T03:05:02;7.40;99.90
46898;DHT22;32646;50.958;6.258;2023-04-08T03:07:28;7.50;99.90
46898;DHT22;32646;50.958;6.258;2023-04-08T03:09:55;7.50;99.90
46898;DHT22;32646;50.958;6.258;2023-04-08T03:12:22;7.50;99.90
46898;DHT22;32646;50.958;6.258;2023-04-08T03:14:49;7.50;99.90
46898;DHT22;32646;50.958;6.258;2023-04-08T03:17:16;7.50;99.90
46898;DHT22;32646;50.958;6.258;2023-04-08T03:19:42;7.50;99.90
46898;DHT22;32646;50.958;6.258;2023-04-08T03:22:09;7.40;99.90
46898;DHT22;32646;50.958;6.258;2023-04-08T03:24:36;7.40;99.90
46898;DHT22;32646;50.958;6.258;2023-04-08T03:27:02;7.30;99.90
46898;DHT22;32646;50.958;6.258;2023-04-08T03:29:29;7.30;99.90
46898;DHT22;32646;50.958;6.258;2023-04-08T03:31:56;7.30;99.90
46898;DHT22;32646;50.958;6.258;2023-04-08T03:34:22;7.30;99.90
46898;DHT22;32646;50.958;6.258;2023-04-08T03:36:49;7.30;99.90
46898;DHT22;32646;50.958;6.258;2023-04-08T03:39:16;7.30;99.90
46898;DHT22;32646;50.958;6.258;2023-04-08T03:41:42;7.30;99.90
46898;DHT22;32646;50.958;6.258;2023-04-08T03:44:09;7.20;99.90
46898;DHT22;32646;50.958;6.258;2023-04-08T03:46:35;7.20;99.90
46898;DHT22;32646;50.958;6.258;2023-04-08T03:49:02;7.20;99.90
46898;DHT22;32646;50.958;6.258;2023-04-08T03:51:28;7.30;99.90
46898;DHT22;32646;50.958;6.258;2023-04-08T03:53:55;7.30;99.90
46898;DHT22;32646;50.958;6.258;2023-04-08T03:56:21;7.30;99.90
46898;DHT22;32646;50.958;6.258;2023-04-08T03:58:48;7.40;99.90
46898;DHT22;32646;50.958;6.258;2023-04-08T04:01:15;7.40;99.90
46898;DHT22;32646;50.958;6.258;2023-04-08T04:03:42;7.40;99.90
46898;DHT22;32646;50.958;6.258;2023-04-08T04:06:09;7.50;99.90
46898;DHT22;32646;50.958;6.258;2023-04-08T04:08:35;7.50;99.90
46898;DHT22;32646;50.958;6.258;2023-04-08T04:11:02;7.50;99.90
46898;DHT22;32646;50.958;6.258;2023-04-08T04:13:29;7.40;99.90
46898;DHT22;32646;50.958;6.258;2023-04-08T04:15:55;7.40;99.90
46898;DHT22;32646;50.958;6.258;2023-04-08T04:18:22;7.40;99.90
46898;DHT22;32646;50.958;6.258;2023-04-08T04:20:48;7.40;99.90
46898;DHT22;32646;50.958;6.258;2023-04-08T04:23:15;7.40;99.90
46898;DHT22;32646;50.958;6.258;2023-04-08T04:25:42;7.40;99.90
46898;DHT22;32646;50.958;6.258;2023-04-08T04:28:08;7.50;99.90
46898;DHT22;32646;50.958;6.258;2023-04-08T04:30:38;7.50;99.90
46898;DHT22;32646;50.958;6.258;2023-04-08T04:33:06;7.40;99.90
46898;DHT22;32646;50.958;6.258;2023-04-08T04:35:32;7.50;99.90
46898;DHT22;32646;50.958;6.258;2023-04-08T04:37:59;7.50;99.90
46898;DHT22;32646;50.958;6.258;2023-04-08T04:40:26;7.50;99.90
46898;DHT22;32646;50.958;6.258;2023-04-08T04:42:52;7.50;99.90
46898;DHT22;32646;50.958;6.258;2023-04-08T04:45:19;7.50;99.90
46898;DHT22;32646;50.958;6.258;2023-04-08T04:47:45;7.50;99.90
46898;DHT22;32646;50.958;6.258;2023-04-08T04:50:12;7.50;99.90
46898;DHT22;32646;50.958;6.258;2023-04-08T04:52:38;7.50;99.90
46898;DHT22;32646;50.958;6.258;2023-04-08T04:55:05;7.50;99.90
46898;DHT22;32646;50.958;6.258;2023-04-08T04:57:32;7.50;99.90
46898;DHT22;32646;50.958;6.258;2023-04-08T04:59:58;7.50;99.90
46898;DHT22;32646;50.958;6.258;2023-04-08T05:02:25;7.60;99.90
46898;DHT22;32646;50.958;6.258;2023-04-08T05:04:51;7.50;99.90
46898;DHT22;32646;50.958;6.258;2023-04-08T05:07:18;7.50;99.90
46898;DHT22;32646;50.958;6.258;2023-04-08T05:09:45;7.50;99.90
46898;DHT22;32646;50.958;6.258;2023-04-08T05:12:11;7.50;99.90
46898;DHT22;32646;50.958;6.258;2023-04-08T05:14:38;7.50;99.90
46898;DHT22;32646;50.958;6.258;2023-04-08T05:17:04;7.50;99.90
46898;DHT22;32646;50.958;6.258;2023-04-08T05:19:31;7.50;99.90
46898;DHT22;32646;50.958;6.258;2023-04-08T05:21:57;7.60;99.90
46898;DHT22;32646;50.958;6.258;2023-04-08T05:24:24;7.70;99.90
46898;DHT22;32646;50.958;6.258;2023-04-08T05:26:50;7.70;99.90
46898;DHT22;32646;50.958;6.258;2023-04-08T05:29:17;7.70;99.90
46898;DHT22;32646;50.958;6.258;2023-04-08T05:31:44;7.70;99.90
46898;DHT22;32646;50.958;6.258;2023-04-08T05:34:10;7.70;99.90
46898;DHT22;32646;50.958;6.258;2023-04-08T05:36:37;7.70;99.90
46898;DHT22;32646;50.958;6.258;2023-04-08T05:39:03;7.70;99.90
46898;DHT22;32646;50.958;6.258;2023-04-08T05:41:30;7.80;99.90
46898;DHT22;32646;50.958;6.258;2023-04-08T05:43:56;7.70;99.90
46898;DHT22;32646;50.958;6.258;2023-04-08T05:46:23;7.70;99.90
46898;DHT22;32646;50.958;6.258;2023-04-08T05:48:49;7.70;99.90
46898;DHT22;32646;50.958;6.258;2023-04-08T05:51:16;7.70;99.90
46898;DHT22;32646;50.958;6.258;2023-04-08T05:53:45;7.70;99.90
46898;DHT22;32646;50.958;6.258;2023-04-08T05:56:12;7.80;99.90
46898;DHT22;32646;50.958;6.258;2023-04-08T05:58:38;7.80;99.90
46898;DHT22;32646;50.958;6.258;2023-04-08T06:01:05;7.70;99.90
46898;DHT22;32646;50.958;6.258;2023-04-08T06:03:31;7.70;99.90
46898;DHT22;32646;50.958;6.258;2023-04-08T06:05:58;7.80;99.90
46898;DHT22;32646;50.958;6.258;2023-04-08T06:08:25;7.80;99.90
46898;DHT22;32646;50.958;6.258;2023-04-08T06:10:51;7.80;99.90
46898;DHT22;32646;50.958;6.258;2023-04-08T06:13:18;7.90;99.90
46898;DHT22;32646;50.958;6.258;2023-04-08T06:15:44;7.80;99.90
46898;DHT22;32646;50.958;6.258;2023-04-08T06:18:11;7.90;99.90
46898;DHT22;32646;50.958;6.258;2023-04-08T06:20:37;7.90;99.90
46898;DHT22;32646;50.958;6.258;2023-04-08T06:23:04;7.90;99.90
46898;DHT22;32646;50.958;6.258;2023-04-08T06:25:30;8.00;99.90
46898;DHT22;32646;50.958;6.258;2023-04-08T06:27:57;8.00;99.90
46898;DHT22;32646;50.958;6.258;2023-04-08T06:30:24;8.10;99.90
46898;DHT22;32646;50.958;6.258;2023-04-08T06:32:50;8.10;99.90
46898;DHT22;32646;50.958;6.258;2023-04-08T06:35:17;8.10;99.90
46898;DHT22;32646;50.958;6.258;2023-04-08T06:37:43;8.20;99.90
46898;DHT22;32646;50.958;6.258;2023-04-08T06:40:10;8.30;99.90
46898;DHT22;32646;50.958;6.258;2023-04-08T06:42:36;8.40;99.90
46898;DHT22;32646;50.958;6.258;2023-04-08T06:45:03;8.30;99.90
46898;DHT22;32646;50.958;6.258;2023-04-08T06:47:30;8.30;99.90
46898;DHT22;32646;50.958;6.258;2023-04-08T06:49:56;8.40;99.90
46898;DHT22;32646;50.958;6.258;2023-04-08T06:52:23;8.40;99.90
46898;DHT22;32646;50.958;6.258;2023-04-08T06:54:49;8.40;99.90
46898;DHT22;32646;50.958;6.258;2023-04-08T06:57:16;8.50;99.90
46898;DHT22;32646;50.958;6.258;2023-04-08T06:59:42;8.50;99.90
46898;DHT22;32646;50.958;6.258;2023-04-08T07:02:09;8.60;99.90
46898;DHT22;32646;50.958;6.258;2023-04-08T07:04:35;8.50;99.90
46898;DHT22;32646;50.958;6.258;2023-04-08T07:07:02;8.60;99.90
46898;DHT22;32646;50.958;6.258;2023-04-08T07:09:28;8.60;99.90
46898;DHT22;32646;50.958;6.258;2023-04-08T07:11:55;8.60;99.90
46898;DHT22;32646;50.958;6.258;2023-04-08T07:14:22;8.60;99.90
46898;DHT22;32646;50.958;6.258;2023-04-08T07:16:48;8.70;99.90
46898;DHT22;32646;50.958;6.258;2023-04-08T07:19:15;8.70;99.90
46898;DHT22;32646;50.958;6.258;2023-04-08T07:21:41;8.70;99.90
46898;DHT22;32646;50.958;6.258;2023-04-08T07:24:08;8.70;99.90
46898;DHT22;32646;50.958;6.258;2023-04-08T07:26:34;8.90;99.90
46898;DHT22;32646;50.958;6.258;2023-04-08T07:29:01;8.90;99.90
46898;DHT22;32646;50.958;6.258;2023-04-08T07:31:27;9.00;99.90
46898;DHT22;32646;50.958;6.258;2023-04-08T07:33:54;9.00;99.90
46898;DHT22;32646;50.958;6.258;2023-04-08T07:36:21;9.10;99.90
46898;DHT22;32646;50.958;6.258;2023-04-08T07:38:47;9.10;99.90
46898;DHT22;32646;50.958;6.258;2023-04-08T07:41:14;9.20;99.90
46898;DHT22;32646;50.958;6.258;2023-04-08T07:43:41;9.30;99.90
46898;DHT22;32646;50.958;6.258;2023-04-08T07:46:07;9.20;99.90
46898;DHT22;32646;50.958;6.258;2023-04-08T07:48:34;9.30;99.90
46898;DHT22;32646;50.958;6.258;2023-04-08T07:51:05;9.30;99.90
46898;DHT22;32646;50.958;6.258;2023-04-08T07:53:36;9.30;99.90
46898;DHT22;32646;50.958;6.258;2023-04-08T07:56:02;9.30;99.90
46898;DHT22;32646;50.958;6.258;2023-04-08T07:58:35;9.30;99.90
46898;DHT22;32646;50.958;6.258;2023-04-08T08:01:02;9.40;99.90
46898;DHT22;32646;50.958;6.258;2023-04-08T08:03:28;9.70;99.90
46898;DHT22;32646;50.958;6.258;2023-04-08T08:05:58;9.70;99.90
46898;DHT22;32646;50.958;6.258;2023-04-08T08:08:25;9.70;99.90
46898;DHT22;32646;50.958;6.258;2023-04-08T08:10:51;9.70;99.90
46898;DHT22;32646;50.958;6.258;2023-04-08T08:13:18;9.90;99.90
46898;DHT22;32646;50.958;6.258;2023-04-08T08:15:44;10.00;99.90
46898;DHT22;32646;50.958;6.258;2023-04-08T08:18:11;10.20;99.90
46898;DHT22;32646;50.958;6.258;2023-04-08T08:20:37;10.30;99.90
46898;DHT22;32646;50.958;6.258;2023-04-08T08:23:04;10.50;99.90
46898;DHT22;32646;50.958;6.258;2023-04-08T08:25:30;10.40;99.90
46898;DHT22;32646;50.958;6.258;2023-04-08T08:27:57;10.50;99.90
46898;DHT22;32646;50.958;6.258;2023-04-08T08:30:24;10.60;99.90
46898;DHT22;32646;50.958;6.258;2023-04-08T08:32:50;10.60;99.90
46898;DHT22;32646;50.958;6.258;2023-04-08T08:35:17;10.60;99.90
46898;DHT22;32646;50.958;6.258;2023-04-08T08:37:43;10.80;99.90
46898;DHT22;32646;50.958;6.258;2023-04-08T08:40:10;11.30;99.90
46898;DHT22;32646;50.958;6.258;2023-04-08T08:42:38;11.60;99.90
46898;DHT22;32646;50.958;6.258;2023-04-08T08:45:05;11.50;99.90
46898;DHT22;32646;50.958;6.258;2023-04-08T08:47:32;11.60;99.90
46898;DHT22;32646;50.958;6.258;2023-04-08T08:49:58;11.50;99.90
46898;DHT22;32646;50.958;6.258;2023-04-08T08:52:25;11.90;99.90
46898;DHT22;32646;50.958;6.258;2023-04-08T08:54:57;12.50;99.90
46898;DHT22;32646;50.958;6.258;2023-04-08T08:57:24;12.70;99.90
46898;DHT22;32646;50.958;6.258;2023-04-08T08:59:50;12.80;99.90
46898;DHT22;32646;50.958;6.258;2023-04-08T09:02:28;12.50;99.90
46898;DHT22;32646;50.958;6.258;2023-04-08T09:04:57;13.00;99.90
46898;DHT22;32646;50.958;6.258;2023-04-08T09:07:25;14.00;99.90
46898;DHT22;32646;50.958;6.258;2023-04-08T09:09:53;14.80;99.90
46898;DHT22;32646;50.958;6.258;2023-04-08T09:12:19;15.20;99.90
46898;DHT22;32646;50.958;6.258;2023-04-08T09:14:46;15.30;94.50
46898;DHT22;32646;50.958;6.258;2023-04-08T09:17:13;15.70;92.80
46898;DHT22;32646;50.958;6.258;2023-04-08T09:20:06;16.40;95.40
46898;DHT22;32646;50.958;6.258;2023-04-08T09:22:33;16.10;93.90
46898;DHT22;32646;50.958;6.258;2023-04-08T09:25:00;16.20;88.70
46898;DHT22;32646;50.958;6.258;2023-04-08T09:27:33;16.40;90.20
46898;DHT22;32646;50.958;6.258;2023-04-08T09:30:15;15.60;92.30
46898;DHT22;32646;50.958;6.258;2023-04-08T09:32:55;15.80;94.60
46898;DHT22;32646;50.958;6.258;2023-04-08T09:35:23;16.50;89.20
46898;DHT22;32646;50.958;6.258;2023-04-08T09:37:50;15.80;91.00
46898;DHT22;32646;50.958;6.258;2023-04-08T09:40:16;14.70;94.10
46898;DHT22;32646;50.958;6.258;2023-04-08T09:42:45;13.90;95.60
46898;DHT22;32646;50.958;6.258;2023-04-08T09:45:12;13.70;97.20
46898;DHT22;32646;50.958;6.258;2023-04-08T09:48:02;13.10;99.90
46898;DHT22;32646;50.958;6.258;2023-04-08T09:50:31;13.70;99.90
46898;DHT22;32646;50.958;6.258;2023-04-08T09:53:01;14.70;99.90
46898;DHT22;32646;50.958;6.258;2023-04-08T09:55:35;16.10;97.80
46898;DHT22;32646;50.958;6.258;2023-04-08T09:58:10;17.20;86.10
46898;DHT22;32646;50.958;6.258;2023-04-08T10:00:41;16.90;90.50
46898;DHT22;32646;50.958;6.258;2023-04-08T10:05:46;17.00;88.70
46898;DHT22;32646;50.958;6.258;2023-04-08T10:08:13;16.80;88.60
46898;DHT22;32646;50.958;6.258;2023-04-08T10:10:40;15.10;91.40
46898;DHT22;32646;50.958;6.258;2023-04-08T10:13:08;15.10;93.30
46898;DHT22;32646;50.958;6.258;2023-04-08T10:15:35;15.40;91.50
46898;DHT22;32646;50.958;6.258;2023-04-08T10:23:02;16.40;90.00
46898;DHT22;32646;50.958;6.258;2023-04-08T10:27:57;15.80;92.00
46898;DHT22;32646;50.958;6.258;2023-04-08T10:32:57;15.50;91.20
46898;DHT22;32646;50.958;6.258;2023-04-08T10:35:31;14.90;92.50
46898;DHT22;32646;50.958;6.258;2023-04-08T10:37:58;14.30;95.50
46898;DHT22;32646;50.958;6.258;2023-04-08T10:40:26;14.50;94.20
46898;DHT22;32646;50.958;6.258;2023-04-08T10:42:59;14.80;93.30
46898;DHT22;32646;50.958;6.258;2023-04-08T10:45:25;14.60;93.40
46898;DHT22;32646;50.958;6.258;2023-04-08T10:47:52;14.90;91.40
46898;DHT22;32646;50.958;6.258;2023-04-08T10:50:19;15.50;92.80
46898;DHT22;32646;50.958;6.258;2023-04-08T10:52:50;15.80;89.30
46898;DHT22;32646;50.958;6.258;2023-04-08T10:55:24;15.60;86.90
46898;DHT22;32646;50.958;6.258;2023-04-08T10:57:52;15.20;91.50
46898;DHT22;32646;50.958;6.258;2023-04-08T11:00:36;14.50;91.80
46898;DHT22;32646;50.958;6.258;2023-04-08T11:03:03;14.40;93.10
46898;DHT22;32646;50.958;6.258;2023-04-08T11:05:30;14.20;94.10
46898;DHT22;32646;50.958;6.258;2023-04-08T11:07:58;14.40;94.40
46898;DHT22;32646;50.958;6.258;2023-04-08T11:10:25;14.50;91.90
46898;DHT22;32646;50.958;6.258;2023-04-08T11:12:56;14.60;93.80
46898;DHT22;32646;50.958;6.258;2023-04-08T11:15:28;14.40;92.80
46898;DHT22;32646;50.958;6.258;2023-04-08T11:17:55;14.10;92.50
46898;DHT22;32646;50.958;6.258;2023-04-08T11:20:22;13.90;91.50
46898;DHT22;32646;50.958;6.258;2023-04-08T11:22:49;13.70;93.70
46898;DHT22;32646;50.958;6.258;2023-04-08T11:25:16;13.90;93.90
46898;DHT22;32646;50.958;6.258;2023-04-08T11:27:42;14.50;93.50
46898;DHT22;32646;50.958;6.258;2023-04-08T11:30:09;14.40;92.90
46898;DHT22;32646;50.958;6.258;2023-04-08T11:32:37;14.70;87.20
46898;DHT22;32646;50.958;6.258;2023-04-08T11:35:04;14.80;84.10
46898;DHT22;32646;50.958;6.258;2023-04-08T11:37:40;15.00;83.60
46898;DHT22;32646;50.958;6.258;2023-04-08T11:40:09;14.80;81.80
46898;DHT22;32646;50.958;6.258;2023-04-08T11:42:36;14.70;86.30
46898;DHT22;32646;50.958;6.258;2023-04-08T11:45:11;14.60;91.90
46898;DHT22;32646;50.958;6.258;2023-04-08T11:47:38;15.10;92.90
46898;DHT22;32646;50.958;6.258;2023-04-08T11:50:05;14.90;92.20
46898;DHT22;32646;50.958;6.258;2023-04-08T11:52:52;14.70;93.80
46898;DHT22;32646;50.958;6.258;2023-04-08T11:55:30;14.50;91.90
46898;DHT22;32646;50.958;6.258;2023-04-08T11:58:01;14.40;93.50
46898;DHT22;32646;50.958;6.258;2023-04-08T12:00:28;14.30;94.20
46898;DHT22;32646;50.958;6.258;2023-04-08T12:02:55;14.10;93.30
46898;DHT22;32646;50.958;6.258;2023-04-08T12:05:21;14.20;95.30
46898;DHT22;32646;50.958;6.258;2023-04-08T12:07:48;14.20;92.90
46898;DHT22;32646;50.958;6.258;2023-04-08T12:10:15;14.50;92.40
46898;DHT22;32646;50.958;6.258;2023-04-08T12:12:41;14.30;92.90
46898;DHT22;32646;50.958;6.258;2023-04-08T12:15:08;14.40;94.00
46898;DHT22;32646;50.958;6.258;2023-04-08T12:17:35;14.60;92.30
46898;DHT22;32646;50.958;6.258;2023-04-08T12:20:02;14.80;92.00
46898;DHT22;32646;50.958;6.258;2023-04-08T12:22:29;15.10;91.50
46898;DHT22;32646;50.958;6.258;2023-04-08T12:24:55;14.80;91.20
46898;DHT22;32646;50.958;6.258;2023-04-08T12:27:24;14.80;87.80
46898;DHT22;32646;50.958;6.258;2023-04-08T12:29:51;14.50;89.30
46898;DHT22;32646;50.958;6.258;2023-04-08T12:32:17;14.30;90.80
46898;DHT22;32646;50.958;6.258;2023-04-08T12:34:44;14.30;88.10
46898;DHT22;32646;50.958;6.258;2023-04-08T12:37:10;14.30;88.10
46898;DHT22;32646;50.958;6.258;2023-04-08T12:39:37;14.00;92.40
46898;DHT22;32646;50.958;6.258;2023-04-08T12:42:03;15.20;92.80
46898;DHT22;32646;50.958;6.258;2023-04-08T12:44:30;15.70;85.10
46898;DHT22;32646;50.958;6.258;2023-04-08T12:46:56;16.00;83.50
46898;DHT22;32646;50.958;6.258;2023-04-08T12:49:24;15.40;84.80
46898;DHT22;32646;50.958;6.258;2023-04-08T12:51:52;15.20;90.50
46898;DHT22;32646;50.958;6.258;2023-04-08T12:54:19;14.70;87.20
46898;DHT22;32646;50.958;6.258;2023-04-08T12:56:45;14.60;86.10
46898;DHT22;32646;50.958;6.258;2023-04-08T12:59:12;14.50;88.80
46898;DHT22;32646;50.958;6.258;2023-04-08T13:01:38;15.00;85.50
46898;DHT22;32646;50.958;6.258;2023-04-08T13:04:05;15.20;87.50
46898;DHT22;32646;50.958;6.258;2023-04-08T13:06:31;15.50;88.00
46898;DHT22;32646;50.958;6.258;2023-04-08T13:08:58;15.20;88.30
46898;DHT22;32646;50.958;6.258;2023-04-08T13:11:24;15.10;90.50
46898;DHT22;32646;50.958;6.258;2023-04-08T13:13:51;15.20;88.10
46898;DHT22;32646;50.958;6.258;2023-04-08T13:16:18;15.80;90.80
46898;DHT22;32646;50.958;6.258;2023-04-08T13:18:44;16.00;81.20
46898;DHT22;32646;50.958;6.258;2023-04-08T13:21:11;15.90;80.70
46898;DHT22;32646;50.958;6.258;2023-04-08T13:23:37;16.00;78.60
46898;DHT22;32646;50.958;6.258;2023-04-08T13:26:04;16.20;77.90
46898;DHT22;32646;50.958;6.258;2023-04-08T13:28:30;16.90;74.00
46898;DHT22;32646;50.958;6.258;2023-04-08T13:30:57;16.50;72.10
46898;DHT22;32646;50.958;6.258;2023-04-08T13:33:23;16.00;73.60
46898;DHT22;32646;50.958;6.258;2023-04-08T13:35:50;15.90;75.00
46898;DHT22;32646;50.958;6.258;2023-04-08T13:38:17;15.50;75.40
46898;DHT22;32646;50.958;6.258;2023-04-08T13:40:43;15.30;76.30
46898;DHT22;32646;50.958;6.258;2023-04-08T13:43:10;15.20;77.30
46898;DHT22;32646;50.958;6.258;2023-04-08T13:45:36;15.10;75.50
46898;DHT22;32646;50.958;6.258;2023-04-08T13:48:03;14.90;76.30
46898;DHT22;32646;50.958;6.258;2023-04-08T13:50:29;14.70;80.60
46898;DHT22;32646;50.958;6.258;2023-04-08T13:52:56;14.60;82.20
46898;DHT22;32646;50.958;6.258;2023-04-08T13:55:22;14.40;81.40
46898;DHT22;32646;50.958;6.258;2023-04-08T13:57:49;14.00;83.60
46898;DHT22;32646;50.958;6.258;2023-04-08T14:00:16;13.90;83.30
46898;DHT22;32646;50.958;6.258;2023-04-08T14:02:42;13.80;89.30
46898;DHT22;32646;50.958;6.258;2023-04-08T14:05:09;13.80;88.70
46898;DHT22;32646;50.958;6.258;2023-04-08T14:07:35;13.70;88.80
46898;DHT22;32646;50.958;6.258;2023-04-08T14:10:02;13.50;89.40
46898;DHT22;32646;50.958;6.258;2023-04-08T14:12:29;13.40;92.10
46898;DHT22;32646;50.958;6.258;2023-04-08T14:14:55;13.40;90.80
46898;DHT22;32646;50.958;6.258;2023-04-08T14:17:22;13.10;91.20
46898;DHT22;32646;50.958;6.258;2023-04-08T14:19:48;13.10;91.70
46898;DHT22;32646;50.958;6.258;2023-04-08T14:22:15;13.00;91.70
46898;DHT22;32646;50.958;6.258;2023-04-08T14:24:41;13.00;91.50
46898;DHT22;32646;50.958;6.258;2023-04-08T14:27:08;12.90;92.60
46898;DHT22;32646;50.958;6.258;2023-04-08T14:29:34;13.10;90.10
46898;DHT22;32646;50.958;6.258;2023-04-08T14:32:01;13.20;87.00
46898;DHT22;32646;50.958;6.258;2023-04-08T14:34:27;13.10;87.70
46898;DHT22;32646;50.958;6.258;2023-04-08T14:36:54;13.10;84.30
46898;DHT22;32646;50.958;6.258;2023-04-08T14:39:20;13.30;79.20
46898;DHT22;32646;50.958;6.258;2023-04-08T14:41:47;13.40;82.00
46898;DHT22;32646;50.958;6.258;2023-04-08T14:44:13;13.30;81.70
46898;DHT22;32646;50.958;6.258;2023-04-08T14:46:40;13.30;85.40
46898;DHT22;32646;50.958;6.258;2023-04-08T14:49:06;13.50;87.10
46898;DHT22;32646;50.958;6.258;2023-04-08T14:51:33;13.40;86.80
46898;DHT22;32646;50.958;6.258;2023-04-08T14:53:59;13.40;87.80
46898;DHT22;32646;50.958;6.258;2023-04-08T14:56:26;13.50;89.30
46898;DHT22;32646;50.958;6.258;2023-04-08T14:58:52;13.60;80.20
46898;DHT22;32646;50.958;6.258;2023-04-08T15:01:19;13.90;82.00
46898;DHT22;32646;50.958;6.258;2023-04-08T15:03:46;14.00;81.60
46898;DHT22;32646;50.958;6.258;2023-04-08T15:06:12;14.30;81.30
46898;DHT22;32646;50.958;6.258;2023-04-08T15:08:39;14.20;78.00
46898;DHT22;32646;50.958;6.258;2023-04-08T15:11:05;14.40;77.50
46898;DHT22;32646;50.958;6.258;2023-04-08T15:13:32;14.20;75.10
46898;DHT22;32646;50.958;6.258;2023-04-08T15:15:58;14.50;70.10
46898;DHT22;32646;50.958;6.258;2023-04-08T15:18:25;14.60;70.10
46898;DHT22;32646;50.958;6.258;2023-04-08T15:20:53;14.40;74.00
46898;DHT22;32646;50.958;6.258;2023-04-08T15:23:19;14.10;76.10
46898;DHT22;32646;50.958;6.258;2023-04-08T15:25:46;13.70;80.30
46898;DHT22;32646;50.958;6.258;2023-04-08T15:28:13;13.50;76.60
46898;DHT22;32646;50.958;6.258;2023-04-08T15:30:39;13.40;78.60
46898;DHT22;32646;50.958;6.258;2023-04-08T15:33:06;13.50;82.00
46898;DHT22;32646;50.958;6.258;2023-04-08T15:35:33;13.50;82.80
46898;DHT22;32646;50.958;6.258;2023-04-08T15:37:59;13.20;83.70
46898;DHT22;32646;50.958;6.258;2023-04-08T15:40:26;13.00;85.70
46898;DHT22;32646;50.958;6.258;2023-04-08T15:42:52;12.60;89.60
46898;DHT22;32646;50.958;6.258;2023-04-08T15:45:19;12.30;88.30
46898;DHT22;32646;50.958;6.258;2023-04-08T15:47:45;12.30;90.80
46898;DHT22;32646;50.958;6.258;2023-04-08T15:50:12;12.40;90.50
46898;DHT22;32646;50.958;6.258;2023-04-08T15:52:39;12.10;91.50
46898;DHT22;32646;50.958;6.258;2023-04-08T15:55:06;12.00;92.30
46898;DHT22;32646;50.958;6.258;2023-04-08T15:57:32;12.00;91.50
46898;DHT22;32646;50.958;6.258;2023-04-08T15:59:59;12.20;91.70